RYR1994 LFBO-GMFO
Flight info
| Callsign | RYR1994 |
|---|---|
| Flight time | 1h 33m |
| Altitude | 37000 |
| Route | GAUDE DCT ANETO DCT TURUV DCT GRAUS DCT LOBAR DCT SEROX DCT CASPE DCT MLA DCT CRETA DCT RIMES DCT SAURA DCT TATOS DCT PLANA DCT VLC DCT AMR DCT DIGEX DCT D316X DCT FO510 DCT FO458 |
| Aircraft | B38M/M-SDE1FGHILORVWXY/HB1 |
Departure
| Time | 2026-04-22 19:22 |
|---|---|
| Airport | Toulouse-Blagnac Airport (LFBO) |
Arrival
| Time | 2026-04-22 20:55 |
|---|---|
| Airport | Oujda Angads Airport (GMFO) |
| Time | Latitude | Longitude | Altitude | Speed | Heading |
|---|---|---|---|---|---|
| 2026-04-22 19:01 | 43.63161 | 1.36956 | 496 ft | 0 kts | 71° |
| 2026-04-22 19:15 | 43.63156 | 1.36937 | 492 ft | 4 kts | 65° |
| 2026-04-22 19:15 | 43.63142 | 1.36906 | 485 ft | 4 kts | 48° |
| 2026-04-22 19:15 | 43.63122 | 1.36885 | 490 ft | 4 kts | 15° |
| 2026-04-22 19:16 | 43.63102 | 1.36888 | 487 ft | 2 kts | 320° |
| 2026-04-22 19:16 | 43.63101 | 1.36889 | 487 ft | 0 kts | 319° |
| 2026-04-22 19:18 | 43.63113 | 1.36869 | 487 ft | 6 kts | 302° |
| 2026-04-22 19:18 | 43.63112 | 1.36819 | 493 ft | 5 kts | 244° |
| 2026-04-22 19:18 | 43.63101 | 1.36769 | 492 ft | 9 kts | 268° |
| 2026-04-22 19:19 | 43.63151 | 1.36683 | 489 ft | 13 kts | 322° |
| 2026-04-22 19:19 | 43.63218 | 1.36613 | 491 ft | 11 kts | 323° |
| 2026-04-22 19:19 | 43.63279 | 1.36549 | 493 ft | 12 kts | 323° |
| 2026-04-22 19:19 | 43.63368 | 1.36458 | 496 ft | 21 kts | 323° |
| 2026-04-22 19:20 | 43.63489 | 1.36332 | 494 ft | 22 kts | 323° |
| 2026-04-22 19:20 | 43.63610 | 1.36207 | 494 ft | 22 kts | 323° |
| 2026-04-22 19:20 | 43.63731 | 1.36081 | 490 ft | 20 kts | 323° |
| 2026-04-22 19:20 | 43.63815 | 1.35969 | 494 ft | 15 kts | 285° |
| 2026-04-22 19:21 | 43.63773 | 1.35853 | 496 ft | 14 kts | 232° |
| 2026-04-22 19:21 | 43.63713 | 1.35790 | 495 ft | 7 kts | 175° |
| 2026-04-22 19:21 | 43.63682 | 1.35818 | 487 ft | 6 kts | 142° |
| 2026-04-22 19:21 | 43.63667 | 1.35833 | 491 ft | 0 kts | 142° |
| 2026-04-22 19:22 | 43.63644 | 1.35857 | 494 ft | 27 kts | 142° |
| 2026-04-22 19:22 | 43.63264 | 1.36252 | 488 ft | 107 kts | 143° |
| 2026-04-22 19:22 | 43.62484 | 1.37040 | 576 ft | 164 kts | 144° |
| 2026-04-22 19:22 | 43.61477 | 1.38030 | 1111 ft | 191 kts | 144° |
| 2026-04-22 19:23 | 43.60384 | 1.39114 | 2157 ft | 191 kts | 146° |
| 2026-04-22 19:23 | 43.59328 | 1.40184 | 3223 ft | 187 kts | 146° |
| 2026-04-22 19:23 | 43.58244 | 1.41264 | 3902 ft | 203 kts | 146° |
| 2026-04-22 19:23 | 43.57005 | 1.42509 | 4242 ft | 240 kts | 145° |
| 2026-04-22 19:24 | 43.55585 | 1.43954 | 4853 ft | 260 kts | 145° |
| 2026-04-22 19:24 | 43.54115 | 1.45423 | 5911 ft | 263 kts | 145° |
| 2026-04-22 19:24 | 43.52539 | 1.46741 | 6855 ft | 270 kts | 158° |
| 2026-04-22 19:24 | 43.50670 | 1.47405 | 7453 ft | 289 kts | 178° |
| 2026-04-22 19:25 | 43.48628 | 1.47020 | 7995 ft | 303 kts | 205° |
| 2026-04-22 19:25 | 43.46957 | 1.45410 | 9332 ft | 286 kts | 226° |
| 2026-04-22 19:25 | 43.45723 | 1.43334 | 10541 ft | 283 kts | 238° |
| 2026-04-22 19:25 | 43.44805 | 1.40844 | 10995 ft | 302 kts | 244° |
| 2026-04-22 19:26 | 43.43488 | 1.38520 | 11571 ft | 316 kts | 224° |
| 2026-04-22 19:26 | 43.41912 | 1.36351 | 12250 ft | 325 kts | 228° |
| 2026-04-22 19:26 | 43.40389 | 1.34098 | 13120 ft | 327 kts | 229° |
| 2026-04-22 19:26 | 43.38846 | 1.31777 | 13943 ft | 331 kts | 230° |
| 2026-04-22 19:27 | 43.37293 | 1.29417 | 14668 ft | 335 kts | 230° |
| 2026-04-22 19:27 | 43.35727 | 1.27023 | 15379 ft | 339 kts | 230° |
| 2026-04-22 19:27 | 43.34148 | 1.24603 | 16081 ft | 342 kts | 231° |
| 2026-04-22 19:27 | 43.32550 | 1.22151 | 16768 ft | 346 kts | 231° |
| 2026-04-22 19:28 | 43.30936 | 1.19676 | 17456 ft | 350 kts | 231° |
| 2026-04-22 19:28 | 43.29412 | 1.17010 | 18119 ft | 352 kts | 236° |
| 2026-04-22 19:28 | 43.27974 | 1.14327 | 18708 ft | 355 kts | 236° |
| 2026-04-22 19:28 | 43.26492 | 1.11594 | 19253 ft | 359 kts | 236° |
| 2026-04-22 19:29 | 43.24985 | 1.08837 | 19813 ft | 363 kts | 236° |
| 2026-04-22 19:29 | 43.23462 | 1.06059 | 20352 ft | 366 kts | 236° |
| 2026-04-22 19:29 | 43.21919 | 1.03253 | 20892 ft | 370 kts | 236° |
| 2026-04-22 19:29 | 43.20363 | 1.00426 | 21420 ft | 373 kts | 236° |
| 2026-04-22 19:30 | 43.19301 | 0.98499 | 21781 ft | 376 kts | 236° |
| 2026-04-22 19:30 | 43.17201 | 0.94689 | 22452 ft | 381 kts | 235° |
| 2026-04-22 19:30 | 43.15598 | 0.91787 | 22978 ft | 384 kts | 235° |
| 2026-04-22 19:30 | 43.13975 | 0.88851 | 23464 ft | 388 kts | 235° |
| 2026-04-22 19:31 | 43.12339 | 0.85893 | 23914 ft | 391 kts | 235° |
| 2026-04-22 19:31 | 43.10688 | 0.82911 | 24346 ft | 394 kts | 235° |
| 2026-04-22 19:31 | 43.09030 | 0.79921 | 24788 ft | 396 kts | 235° |
| 2026-04-22 19:31 | 43.07359 | 0.76909 | 25218 ft | 398 kts | 236° |
| 2026-04-22 19:32 | 43.05678 | 0.73883 | 25640 ft | 401 kts | 236° |
| 2026-04-22 19:32 | 43.03988 | 0.70843 | 26058 ft | 403 kts | 236° |
| 2026-04-22 19:32 | 43.02284 | 0.67791 | 26473 ft | 405 kts | 234° |
| 2026-04-22 19:32 | 43.00229 | 0.65118 | 26890 ft | 413 kts | 217° |
| 2026-04-22 19:33 | 42.97638 | 0.63360 | 27307 ft | 422 kts | 201° |
| 2026-04-22 19:33 | 42.94760 | 0.62446 | 27682 ft | 427 kts | 195° |
| 2026-04-22 19:33 | 42.91838 | 0.61636 | 28015 ft | 430 kts | 194° |
| 2026-04-22 19:33 | 42.88900 | 0.60850 | 28347 ft | 432 kts | 194° |
| 2026-04-22 19:34 | 42.85935 | 0.60079 | 28626 ft | 434 kts | 194° |
| 2026-04-22 19:34 | 42.82960 | 0.59316 | 28984 ft | 437 kts | 194° |
| 2026-04-22 19:34 | 42.79963 | 0.58553 | 29299 ft | 439 kts | 194° |
| 2026-04-22 19:34 | 42.76952 | 0.57787 | 29630 ft | 441 kts | 194° |
| 2026-04-22 19:35 | 42.73924 | 0.57017 | 29924 ft | 444 kts | 194° |
| 2026-04-22 19:35 | 42.70879 | 0.56244 | 30261 ft | 447 kts | 194° |
| 2026-04-22 19:35 | 42.68848 | 0.55723 | 30427 ft | 449 kts | 194° |
| 2026-04-22 19:35 | 42.64737 | 0.54664 | 30823 ft | 451 kts | 194° |
| 2026-04-22 19:36 | 42.61649 | 0.53871 | 31106 ft | 453 kts | 194° |
| 2026-04-22 19:36 | 42.58542 | 0.53073 | 31398 ft | 455 kts | 194° |
| 2026-04-22 19:36 | 42.55426 | 0.52273 | 31695 ft | 457 kts | 194° |
| 2026-04-22 19:36 | 42.52298 | 0.51472 | 31976 ft | 459 kts | 194° |
| 2026-04-22 19:37 | 42.49159 | 0.50668 | 32243 ft | 461 kts | 194° |
| 2026-04-22 19:37 | 42.46002 | 0.49861 | 32516 ft | 462 kts | 194° |
| 2026-04-22 19:37 | 42.42833 | 0.49052 | 32801 ft | 464 kts | 194° |
| 2026-04-22 19:37 | 42.39657 | 0.48241 | 33087 ft | 465 kts | 194° |
| 2026-04-22 19:38 | 42.36478 | 0.47430 | 33441 ft | 465 kts | 194° |
| 2026-04-22 19:38 | 42.33302 | 0.46620 | 33821 ft | 464 kts | 194° |
| 2026-04-22 19:38 | 42.30134 | 0.45813 | 34160 ft | 463 kts | 194° |
| 2026-04-22 19:38 | 42.26973 | 0.45008 | 34488 ft | 462 kts | 194° |
| 2026-04-22 19:39 | 42.23864 | 0.44217 | 34775 ft | 461 kts | 194° |
| 2026-04-22 19:39 | 42.20722 | 0.43419 | 35063 ft | 460 kts | 194° |
| 2026-04-22 19:39 | 42.17570 | 0.42618 | 35352 ft | 460 kts | 194° |
| 2026-04-22 19:39 | 42.14425 | 0.41821 | 35619 ft | 460 kts | 194° |
| 2026-04-22 19:40 | 42.11283 | 0.41025 | 35885 ft | 459 kts | 194° |
| 2026-04-22 19:40 | 42.08106 | 0.40221 | 36158 ft | 458 kts | 194° |
| 2026-04-22 19:40 | 42.05020 | 0.39441 | 36415 ft | 458 kts | 194° |
| 2026-04-22 19:40 | 42.01891 | 0.38650 | 36665 ft | 457 kts | 194° |
| 2026-04-22 19:41 | 41.98770 | 0.37863 | 36897 ft | 457 kts | 194° |
| 2026-04-22 19:41 | 41.95643 | 0.37075 | 37022 ft | 457 kts | 194° |
| 2026-04-22 19:41 | 41.92516 | 0.36288 | 37004 ft | 456 kts | 194° |
| 2026-04-22 19:42 | 41.86302 | 0.34726 | 37010 ft | 455 kts | 194° |
| 2026-04-22 19:42 | 41.80075 | 0.33165 | 37006 ft | 455 kts | 194° |
| 2026-04-22 19:43 | 41.70741 | 0.30830 | 37005 ft | 455 kts | 194° |
| 2026-04-22 19:43 | 41.64516 | 0.29276 | 37004 ft | 455 kts | 194° |
| 2026-04-22 19:44 | 41.58292 | 0.27726 | 36998 ft | 455 kts | 194° |
| 2026-04-22 19:44 | 41.52069 | 0.26179 | 36990 ft | 455 kts | 194° |
| 2026-04-22 19:45 | 41.45843 | 0.24634 | 36981 ft | 455 kts | 193° |
| 2026-04-22 19:45 | 41.39616 | 0.23092 | 36975 ft | 455 kts | 193° |
| 2026-04-22 19:46 | 41.33391 | 0.21554 | 36978 ft | 455 kts | 193° |
| 2026-04-22 19:46 | 41.27166 | 0.20018 | 36975 ft | 455 kts | 193° |
| 2026-04-22 19:47 | 41.20946 | 0.18487 | 36979 ft | 455 kts | 193° |
| 2026-04-22 19:47 | 41.14720 | 0.16957 | 36980 ft | 455 kts | 193° |
| 2026-04-22 19:48 | 41.08646 | 0.14768 | 36989 ft | 452 kts | 200° |
| 2026-04-22 19:48 | 41.02625 | 0.12350 | 36994 ft | 452 kts | 200° |
| 2026-04-22 19:49 | 40.96605 | 0.09925 | 36992 ft | 452 kts | 200° |
| 2026-04-22 19:49 | 40.90588 | 0.07505 | 36996 ft | 452 kts | 200° |
| 2026-04-22 19:50 | 40.85591 | 0.05499 | 37003 ft | 452 kts | 200° |
| 2026-04-22 19:50 | 40.78604 | 0.02700 | 37006 ft | 451 kts | 200° |
| 2026-04-22 19:51 | 40.73570 | 0.00688 | 37014 ft | 451 kts | 200° |
| 2026-04-22 19:51 | 40.67568 | -0.01708 | 37016 ft | 451 kts | 200° |
| 2026-04-22 19:52 | 40.61564 | -0.04100 | 37028 ft | 450 kts | 200° |
| 2026-04-22 19:52 | 40.55562 | -0.06487 | 37026 ft | 450 kts | 200° |
| 2026-04-22 19:53 | 40.49567 | -0.08867 | 37024 ft | 450 kts | 200° |
| 2026-04-22 19:53 | 40.43618 | -0.11224 | 37019 ft | 449 kts | 200° |
| 2026-04-22 19:54 | 40.37628 | -0.13593 | 37017 ft | 450 kts | 200° |
| 2026-04-22 19:54 | 40.31642 | -0.15957 | 37016 ft | 449 kts | 200° |
| 2026-04-22 19:55 | 40.25657 | -0.18315 | 37024 ft | 449 kts | 199° |
| 2026-04-22 19:55 | 40.19676 | -0.20667 | 37021 ft | 449 kts | 200° |
| 2026-04-22 19:56 | 40.13691 | -0.23016 | 37019 ft | 449 kts | 200° |
| 2026-04-22 19:56 | 40.07711 | -0.25359 | 37024 ft | 449 kts | 200° |
| 2026-04-22 19:57 | 40.01733 | -0.27698 | 37023 ft | 448 kts | 199° |
| 2026-04-22 19:57 | 39.95755 | -0.30031 | 37017 ft | 448 kts | 199° |
| 2026-04-22 19:58 | 39.89784 | -0.32356 | 37012 ft | 448 kts | 199° |
| 2026-04-22 19:58 | 39.83817 | -0.34678 | 37006 ft | 447 kts | 199° |
| 2026-04-22 20:00 | 39.62991 | -0.42746 | 36998 ft | 445 kts | 199° |
| 2026-04-22 20:01 | 39.57049 | -0.45039 | 36992 ft | 445 kts | 199° |
| 2026-04-22 20:01 | 39.51112 | -0.47326 | 36988 ft | 445 kts | 199° |
| 2026-04-22 20:02 | 39.45505 | -0.50483 | 36997 ft | 439 kts | 211° |
| 2026-04-22 20:02 | 39.40102 | -0.54212 | 36987 ft | 440 kts | 211° |
| 2026-04-22 20:03 | 39.34743 | -0.57936 | 36991 ft | 440 kts | 211° |
| 2026-04-22 20:03 | 39.29350 | -0.61682 | 36993 ft | 440 kts | 211° |
| 2026-04-22 20:04 | 39.23955 | -0.65422 | 36985 ft | 440 kts | 211° |
| 2026-04-22 20:04 | 39.18558 | -0.69157 | 36999 ft | 440 kts | 211° |
| 2026-04-22 20:05 | 39.13166 | -0.72883 | 37006 ft | 440 kts | 211° |
| 2026-04-22 20:05 | 39.07768 | -0.76606 | 36998 ft | 440 kts | 211° |
| 2026-04-22 20:06 | 39.02376 | -0.80318 | 37003 ft | 440 kts | 211° |
| 2026-04-22 20:06 | 38.96978 | -0.84029 | 37002 ft | 439 kts | 211° |
| 2026-04-22 20:07 | 38.91584 | -0.87729 | 37012 ft | 440 kts | 211° |
| 2026-04-22 20:07 | 38.86193 | -0.91421 | 37013 ft | 439 kts | 211° |
| 2026-04-22 20:08 | 38.80803 | -0.95107 | 37017 ft | 439 kts | 211° |
| 2026-04-22 20:08 | 38.75416 | -0.98784 | 37017 ft | 438 kts | 211° |
| 2026-04-22 20:09 | 38.70027 | -1.02455 | 37018 ft | 438 kts | 211° |
| 2026-04-22 20:09 | 38.64644 | -1.06117 | 37022 ft | 438 kts | 211° |
| 2026-04-22 20:10 | 38.59259 | -1.09774 | 37021 ft | 438 kts | 211° |
| 2026-04-22 20:10 | 38.53869 | -1.13427 | 37020 ft | 438 kts | 211° |
| 2026-04-22 20:11 | 38.48479 | -1.17075 | 37018 ft | 438 kts | 211° |
| 2026-04-22 20:11 | 38.43088 | -1.20717 | 37016 ft | 439 kts | 210° |
| 2026-04-22 20:12 | 38.37691 | -1.24357 | 37009 ft | 439 kts | 210° |
| 2026-04-22 20:12 | 38.33201 | -1.27381 | 37006 ft | 439 kts | 210° |
| 2026-04-22 20:13 | 38.26918 | -1.31604 | 37000 ft | 440 kts | 210° |
| 2026-04-22 20:13 | 38.21509 | -1.35233 | 36994 ft | 440 kts | 210° |
| 2026-04-22 20:14 | 38.16098 | -1.38858 | 36993 ft | 440 kts | 210° |
| 2026-04-22 20:14 | 38.10686 | -1.42477 | 36991 ft | 440 kts | 210° |
| 2026-04-22 20:15 | 38.05271 | -1.46092 | 36993 ft | 440 kts | 210° |
| 2026-04-22 20:15 | 37.99859 | -1.49699 | 36999 ft | 439 kts | 210° |
| 2026-04-22 20:16 | 37.94446 | -1.53301 | 36993 ft | 439 kts | 210° |
| 2026-04-22 20:16 | 37.89034 | -1.56896 | 36991 ft | 439 kts | 210° |
| 2026-04-22 20:17 | 37.83622 | -1.60485 | 37006 ft | 439 kts | 210° |
| 2026-04-22 20:17 | 37.78206 | -1.64070 | 36997 ft | 439 kts | 211° |
| 2026-04-22 20:18 | 37.72791 | -1.67649 | 37001 ft | 439 kts | 211° |
| 2026-04-22 20:18 | 37.67376 | -1.71222 | 36995 ft | 439 kts | 211° |
| 2026-04-22 20:19 | 37.61952 | -1.74795 | 36997 ft | 440 kts | 211° |
| 2026-04-22 20:19 | 37.56523 | -1.78365 | 37000 ft | 440 kts | 211° |
| 2026-04-22 20:20 | 37.51096 | -1.81929 | 37005 ft | 440 kts | 211° |
| 2026-04-22 20:20 | 37.45661 | -1.85491 | 36998 ft | 440 kts | 211° |
| 2026-04-22 20:21 | 37.40225 | -1.89049 | 37009 ft | 441 kts | 211° |
| 2026-04-22 20:21 | 37.34782 | -1.92605 | 37009 ft | 441 kts | 211° |
| 2026-04-22 20:22 | 37.29336 | -1.96156 | 37008 ft | 441 kts | 211° |
| 2026-04-22 20:22 | 37.23879 | -1.99710 | 36998 ft | 442 kts | 211° |
| 2026-04-22 20:23 | 37.18420 | -2.03258 | 36998 ft | 442 kts | 211° |
| 2026-04-22 20:23 | 37.12955 | -2.06806 | 37003 ft | 443 kts | 211° |
| 2026-04-22 20:24 | 37.07477 | -2.10356 | 36998 ft | 443 kts | 211° |
| 2026-04-22 20:24 | 37.01992 | -2.13906 | 36994 ft | 444 kts | 211° |
| 2026-04-22 20:25 | 36.96541 | -2.17428 | 36993 ft | 444 kts | 211° |
| 2026-04-22 20:25 | 36.91057 | -2.20965 | 36993 ft | 444 kts | 211° |
| 2026-04-22 20:26 | 36.85566 | -2.24493 | 36992 ft | 444 kts | 209° |
| 2026-04-22 20:26 | 36.82628 | -2.25709 | 36973 ft | 450 kts | 191° |
| 2026-04-22 20:26 | 36.79498 | -2.26062 | 37000 ft | 453 kts | 188° |
| 2026-04-22 20:27 | 36.73191 | -2.26629 | 36993 ft | 455 kts | 187° |
| 2026-04-22 20:27 | 36.66865 | -2.27100 | 36986 ft | 455 kts | 187° |
| 2026-04-22 20:28 | 36.60537 | -2.27547 | 36990 ft | 456 kts | 187° |
| 2026-04-22 20:28 | 36.54202 | -2.27992 | 36985 ft | 456 kts | 187° |
| 2026-04-22 20:29 | 36.47870 | -2.28436 | 36979 ft | 456 kts | 187° |
| 2026-04-22 20:29 | 36.41532 | -2.28880 | 36982 ft | 456 kts | 187° |
| 2026-04-22 20:30 | 36.35214 | -2.29321 | 36527 ft | 452 kts | 187° |
| 2026-04-22 20:30 | 36.32053 | -2.29542 | 35684 ft | 457 kts | 187° |
| 2026-04-22 20:30 | 36.28881 | -2.29763 | 35093 ft | 455 kts | 187° |
| 2026-04-22 20:30 | 36.25739 | -2.29982 | 34681 ft | 450 kts | 187° |
| 2026-04-22 20:31 | 36.22625 | -2.30199 | 34216 ft | 446 kts | 187° |
| 2026-04-22 20:31 | 36.19538 | -2.30414 | 33665 ft | 444 kts | 187° |
| 2026-04-22 20:31 | 36.16460 | -2.30627 | 33106 ft | 441 kts | 187° |
| 2026-04-22 20:31 | 36.13408 | -2.30839 | 32607 ft | 438 kts | 187° |
| 2026-04-22 20:32 | 36.10375 | -2.31050 | 32130 ft | 434 kts | 187° |
| 2026-04-22 20:32 | 36.07368 | -2.31258 | 31639 ft | 431 kts | 187° |
| 2026-04-22 20:32 | 36.04383 | -2.31465 | 31154 ft | 429 kts | 186° |
| 2026-04-22 20:32 | 36.01413 | -2.31671 | 30678 ft | 426 kts | 186° |
| 2026-04-22 20:33 | 35.98456 | -2.31875 | 30203 ft | 424 kts | 186° |
| 2026-04-22 20:33 | 35.95520 | -2.32079 | 29677 ft | 422 kts | 186° |
| 2026-04-22 20:33 | 35.92596 | -2.32281 | 29172 ft | 419 kts | 186° |
| 2026-04-22 20:33 | 35.89703 | -2.32480 | 28711 ft | 415 kts | 186° |
| 2026-04-22 20:34 | 35.86831 | -2.32679 | 28260 ft | 411 kts | 186° |
| 2026-04-22 20:34 | 35.83991 | -2.32874 | 27816 ft | 408 kts | 186° |
| 2026-04-22 20:34 | 35.81168 | -2.33069 | 27376 ft | 404 kts | 186° |
| 2026-04-22 20:34 | 35.78371 | -2.33261 | 26941 ft | 401 kts | 186° |
| 2026-04-22 20:35 | 35.75592 | -2.33453 | 26510 ft | 399 kts | 186° |
| 2026-04-22 20:35 | 35.72829 | -2.33643 | 26089 ft | 396 kts | 186° |
| 2026-04-22 20:35 | 35.70091 | -2.33831 | 25673 ft | 393 kts | 186° |
| 2026-04-22 20:35 | 35.67365 | -2.34018 | 25258 ft | 391 kts | 186° |
| 2026-04-22 20:36 | 35.64657 | -2.34204 | 24851 ft | 389 kts | 186° |
| 2026-04-22 20:36 | 35.61962 | -2.34388 | 24439 ft | 387 kts | 186° |
| 2026-04-22 20:36 | 35.59279 | -2.34572 | 24034 ft | 385 kts | 186° |
| 2026-04-22 20:36 | 35.57475 | -2.34695 | 23763 ft | 384 kts | 186° |
| 2026-04-22 20:37 | 35.54844 | -2.34876 | 23335 ft | 383 kts | 186° |
| 2026-04-22 20:37 | 35.52193 | -2.35057 | 22875 ft | 381 kts | 186° |
| 2026-04-22 20:37 | 35.49556 | -2.35237 | 22464 ft | 378 kts | 186° |
| 2026-04-22 20:37 | 35.46947 | -2.35416 | 22069 ft | 375 kts | 186° |
| 2026-04-22 20:38 | 35.44354 | -2.35593 | 21676 ft | 372 kts | 185° |
| 2026-04-22 20:38 | 35.41779 | -2.35768 | 21289 ft | 369 kts | 186° |
| 2026-04-22 20:38 | 35.39227 | -2.35942 | 20902 ft | 366 kts | 186° |
| 2026-04-22 20:38 | 35.36692 | -2.36115 | 20516 ft | 364 kts | 185° |
| 2026-04-22 20:39 | 35.34172 | -2.36287 | 20139 ft | 361 kts | 185° |
| 2026-04-22 20:39 | 35.31669 | -2.36457 | 19760 ft | 359 kts | 186° |
| 2026-04-22 20:39 | 35.29181 | -2.36626 | 19382 ft | 357 kts | 185° |
| 2026-04-22 20:39 | 35.26704 | -2.36795 | 19004 ft | 355 kts | 185° |
| 2026-04-22 20:40 | 35.24239 | -2.36962 | 18631 ft | 354 kts | 185° |
| 2026-04-22 20:40 | 35.21786 | -2.37129 | 18252 ft | 352 kts | 185° |
| 2026-04-22 20:40 | 35.19346 | -2.37294 | 17836 ft | 350 kts | 185° |
| 2026-04-22 20:40 | 35.16923 | -2.37458 | 17447 ft | 348 kts | 185° |
| 2026-04-22 20:41 | 35.14516 | -2.37622 | 17070 ft | 345 kts | 185° |
| 2026-04-22 20:41 | 35.12130 | -2.37435 | 16652 ft | 346 kts | 168° |
| 2026-04-22 20:41 | 35.09817 | -2.36673 | 16322 ft | 343 kts | 168° |
| 2026-04-22 20:41 | 35.07521 | -2.35948 | 15979 ft | 339 kts | 168° |
| 2026-04-22 20:42 | 35.05248 | -2.35224 | 15640 ft | 336 kts | 168° |
| 2026-04-22 20:42 | 35.02994 | -2.34504 | 15296 ft | 333 kts | 168° |
| 2026-04-22 20:42 | 35.00763 | -2.33790 | 14963 ft | 330 kts | 168° |
| 2026-04-22 20:42 | 34.98548 | -2.33082 | 14625 ft | 328 kts | 168° |
| 2026-04-22 20:43 | 34.96352 | -2.32380 | 14286 ft | 325 kts | 168° |
| 2026-04-22 20:43 | 34.94174 | -2.31684 | 13964 ft | 322 kts | 168° |
| 2026-04-22 20:43 | 34.92032 | -2.30999 | 13798 ft | 314 kts | 168° |
| 2026-04-22 20:43 | 34.89950 | -2.30335 | 13638 ft | 305 kts | 168° |
| 2026-04-22 20:44 | 34.87926 | -2.29689 | 13474 ft | 296 kts | 168° |
| 2026-04-22 20:44 | 34.85962 | -2.29063 | 13322 ft | 287 kts | 168° |
| 2026-04-22 20:44 | 34.84066 | -2.28445 | 13165 ft | 280 kts | 165° |
| 2026-04-22 20:44 | 34.82257 | -2.27562 | 12823 ft | 281 kts | 160° |
| 2026-04-22 20:45 | 34.80459 | -2.26639 | 12484 ft | 280 kts | 160° |
| 2026-04-22 20:45 | 34.78662 | -2.25734 | 12159 ft | 279 kts | 160° |
| 2026-04-22 20:45 | 34.76869 | -2.24842 | 11856 ft | 277 kts | 160° |
| 2026-04-22 20:45 | 34.75086 | -2.23962 | 11525 ft | 276 kts | 160° |
| 2026-04-22 20:46 | 34.71535 | -2.22222 | 10898 ft | 274 kts | 160° |
| 2026-04-22 20:46 | 34.69765 | -2.21358 | 10579 ft | 274 kts | 160° |
| 2026-04-22 20:46 | 34.68000 | -2.20497 | 10260 ft | 272 kts | 160° |
| 2026-04-22 20:47 | 34.66272 | -2.19640 | 9934 ft | 264 kts | 156° |
| 2026-04-22 20:47 | 34.64845 | -2.18274 | 9557 ft | 267 kts | 127° |
| 2026-04-22 20:47 | 34.64085 | -2.16219 | 9232 ft | 268 kts | 108° |
| 2026-04-22 20:47 | 34.63520 | -2.14067 | 8938 ft | 267 kts | 110° |
| 2026-04-22 20:48 | 34.62948 | -2.11956 | 8619 ft | 266 kts | 109° |
| 2026-04-22 20:48 | 34.62380 | -2.09856 | 8321 ft | 258 kts | 109° |
| 2026-04-22 20:48 | 34.61821 | -2.07785 | 8036 ft | 253 kts | 109° |
| 2026-04-22 20:48 | 34.61279 | -2.05783 | 7751 ft | 252 kts | 109° |
| 2026-04-22 20:49 | 34.60732 | -2.03761 | 7458 ft | 252 kts | 108° |
| 2026-04-22 20:49 | 34.60179 | -2.01718 | 7164 ft | 251 kts | 108° |
| 2026-04-22 20:49 | 34.59641 | -1.99732 | 6867 ft | 251 kts | 108° |
| 2026-04-22 20:49 | 34.59131 | -1.97708 | 6522 ft | 248 kts | 99° |
| 2026-04-22 20:50 | 34.59277 | -1.95679 | 6154 ft | 241 kts | 66° |
| 2026-04-22 20:50 | 34.60223 | -1.94074 | 5863 ft | 233 kts | 42° |
| 2026-04-22 20:50 | 34.61428 | -1.92776 | 5603 ft | 231 kts | 42° |
| 2026-04-22 20:50 | 34.62624 | -1.91487 | 5341 ft | 229 kts | 42° |
| 2026-04-22 20:51 | 34.63818 | -1.90210 | 5073 ft | 229 kts | 42° |
| 2026-04-22 20:51 | 34.65001 | -1.88955 | 4922 ft | 222 kts | 42° |
| 2026-04-22 20:51 | 34.66145 | -1.87746 | 4792 ft | 215 kts | 42° |
| 2026-04-22 20:51 | 34.67304 | -1.86522 | 4661 ft | 221 kts | 42° |
| 2026-04-22 20:52 | 34.68428 | -1.85340 | 4554 ft | 211 kts | 42° |
| 2026-04-22 20:52 | 34.69537 | -1.84172 | 4233 ft | 205 kts | 42° |
| 2026-04-22 20:52 | 34.70689 | -1.83275 | 3949 ft | 197 kts | 17° |
| 2026-04-22 20:52 | 34.72006 | -1.83340 | 3750 ft | 187 kts | 340° |
| 2026-04-22 20:53 | 34.73047 | -1.84251 | 3585 ft | 187 kts | 314° |
| 2026-04-22 20:53 | 34.73943 | -1.85408 | 3338 ft | 187 kts | 314° |
| 2026-04-22 20:53 | 34.74776 | -1.86539 | 3094 ft | 172 kts | 313° |
| 2026-04-22 20:53 | 34.75536 | -1.87607 | 2808 ft | 162 kts | 313° |
| 2026-04-22 20:54 | 34.76243 | -1.88598 | 2595 ft | 149 kts | 312° |
| 2026-04-22 20:54 | 34.76912 | -1.89526 | 2364 ft | 140 kts | 311° |
| 2026-04-22 20:54 | 34.77531 | -1.90389 | 2101 ft | 135 kts | 311° |
| 2026-04-22 20:54 | 34.78139 | -1.91240 | 1790 ft | 130 kts | 310° |
| 2026-04-22 20:55 | 34.78741 | -1.92081 | 1710 ft | 135 kts | 312° |
| 2026-04-22 20:55 | 34.79336 | -1.92918 | 1555 ft | 122 kts | 312° |
| 2026-04-22 20:55 | 34.79827 | -1.93597 | 1528 ft | 85 kts | 310° |
| 2026-04-22 20:55 | 34.80079 | -1.93983 | 1528 ft | 34 kts | 272° |
| 2026-04-22 20:56 | 34.79940 | -1.94081 | 1525 ft | 20 kts | 149° |
| 2026-04-22 20:56 | 34.79847 | -1.93957 | 1528 ft | 21 kts | 130° |
| 2026-04-22 20:56 | 34.79750 | -1.93821 | 1520 ft | 22 kts | 130° |
| 2026-04-22 20:56 | 34.79645 | -1.93676 | 1522 ft | 23 kts | 130° |
| 2026-04-22 20:57 | 34.79537 | -1.93521 | 1523 ft | 25 kts | 130° |
| 2026-04-22 20:57 | 34.79431 | -1.93373 | 1528 ft | 15 kts | 130° |
| 2026-04-22 20:57 | 34.79385 | -1.93308 | 1528 ft | 0 kts | 130° |
| 2026-04-22 21:00 | 34.79370 | -1.93288 | 1525 ft | 7 kts | 131° |
| 2026-04-22 21:01 | 34.79339 | -1.93245 | 1528 ft | 7 kts | 133° |
| 2026-04-22 21:01 | 34.79305 | -1.93206 | 1527 ft | 7 kts | 140° |
| 2026-04-22 21:01 | 34.79267 | -1.93174 | 1527 ft | 7 kts | 153° |
| 2026-04-22 21:01 | 34.79224 | -1.93157 | 1524 ft | 1 kts | 171° |
| 2026-04-22 21:02 | 34.78578 | -1.93942 | 1525 ft | 0 kts | 352° |